sensor_id;sensor_type;location;lat;lon;timestamp;P1;durP1;ratioP1;P2;durP2;ratioP2
76900;SDS011;65859;43.020;25.096;2023-07-31T00:00:51;11.15;;;10.07;;
76900;SDS011;65859;43.020;25.096;2023-07-31T00:03:17;11.95;;;10.85;;
76900;SDS011;65859;43.020;25.096;2023-07-31T00:05:43;10.95;;;9.95;;
76900;SDS011;65859;43.020;25.096;2023-07-31T00:08:09;10.65;;;9.60;;
76900;SDS011;65859;43.020;25.096;2023-07-31T00:10:36;10.38;;;9.38;;
76900;SDS011;65859;43.020;25.096;2023-07-31T00:13:02;10.93;;;9.82;;
76900;SDS011;65859;43.020;25.096;2023-07-31T00:15:28;11.38;;;10.38;;
76900;SDS011;65859;43.020;25.096;2023-07-31T00:17:55;11.43;;;10.32;;
76900;SDS011;65859;43.020;25.096;2023-07-31T00:20:21;10.88;;;9.85;;
76900;SDS011;65859;43.020;25.096;2023-07-31T00:22:49;10.20;;;9.10;;
76900;SDS011;65859;43.020;25.096;2023-07-31T00:25:15;11.40;;;10.18;;
76900;SDS011;65859;43.020;25.096;2023-07-31T00:27:42;12.73;;;9.70;;
76900;SDS011;65859;43.020;25.096;2023-07-31T00:30:09;11.75;;;10.55;;
76900;SDS011;65859;43.020;25.096;2023-07-31T00:32:36;11.80;;;10.70;;
76900;SDS011;65859;43.020;25.096;2023-07-31T00:35:02;12.18;;;11.18;;
76900;SDS011;65859;43.020;25.096;2023-07-31T00:37:29;12.30;;;11.30;;
76900;SDS011;65859;43.020;25.096;2023-07-31T00:39:55;11.50;;;10.50;;
76900;SDS011;65859;43.020;25.096;2023-07-31T00:42:22;12.10;;;11.07;;
76900;SDS011;65859;43.020;25.096;2023-07-31T00:44:48;13.20;;;12.02;;
76900;SDS011;65859;43.020;25.096;2023-07-31T00:47:14;14.27;;;12.98;;
76900;SDS011;65859;43.020;25.096;2023-07-31T00:49:40;13.00;;;11.80;;
76900;SDS011;65859;43.020;25.096;2023-07-31T00:52:09;13.55;;;12.25;;
76900;SDS011;65859;43.020;25.096;2023-07-31T00:54:37;15.13;;;13.65;;
76900;SDS011;65859;43.020;25.096;2023-07-31T00:57:04;15.30;;;13.90;;
76900;SDS011;65859;43.020;25.096;2023-07-31T00:59:32;19.80;;;15.63;;
76900;SDS011;65859;43.020;25.096;2023-07-31T01:01:59;17.63;;;14.55;;
76900;SDS011;65859;43.020;25.096;2023-07-31T01:04:25;15.98;;;14.40;;
76900;SDS011;65859;43.020;25.096;2023-07-31T01:06:55;16.08;;;14.63;;
76900;SDS011;65859;43.020;25.096;2023-07-31T01:09:45;16.63;;;14.95;;
76900;SDS011;65859;43.020;25.096;2023-07-31T01:12:17;17.17;;;15.60;;
76900;SDS011;65859;43.020;25.096;2023-07-31T01:14:51;17.38;;;15.73;;
76900;SDS011;65859;43.020;25.096;2023-07-31T01:17:38;18.23;;;16.52;;
76900;SDS011;65859;43.020;25.096;2023-07-31T01:20:08;17.63;;;16.08;;
76900;SDS011;65859;43.020;25.096;2023-07-31T01:26:03;18.92;;;17.13;;
76900;SDS011;65859;43.020;25.096;2023-07-31T01:31:07;18.05;;;16.45;;
76900;SDS011;65859;43.020;25.096;2023-07-31T01:33:37;19.52;;;17.58;;
76900;SDS011;65859;43.020;25.096;2023-07-31T01:36:04;18.95;;;17.17;;
76900;SDS011;65859;43.020;25.096;2023-07-31T01:38:30;19.00;;;17.30;;
76900;SDS011;65859;43.020;25.096;2023-07-31T01:40:57;18.67;;;16.77;;
76900;SDS011;65859;43.020;25.096;2023-07-31T01:43:23;19.33;;;17.58;;
76900;SDS011;65859;43.020;25.096;2023-07-31T01:45:49;20.05;;;18.17;;
76900;SDS011;65859;43.020;25.096;2023-07-31T01:48:16;21.88;;;18.15;;
76900;SDS011;65859;43.020;25.096;2023-07-31T01:50:42;20.10;;;18.10;;
76900;SDS011;65859;43.020;25.096;2023-07-31T01:53:08;20.42;;;18.40;;
76900;SDS011;65859;43.020;25.096;2023-07-31T01:55:38;21.15;;;18.90;;
76900;SDS011;65859;43.020;25.096;2023-07-31T01:58:04;19.50;;;17.63;;
76900;SDS011;65859;43.020;25.096;2023-07-31T02:00:30;21.00;;;18.88;;
76900;SDS011;65859;43.020;25.096;2023-07-31T02:02:56;18.77;;;17.13;;
76900;SDS011;65859;43.020;25.096;2023-07-31T02:05:24;20.00;;;18.10;;
76900;SDS011;65859;43.020;25.096;2023-07-31T02:07:50;19.65;;;17.85;;
76900;SDS011;65859;43.020;25.096;2023-07-31T02:10:17;20.65;;;18.83;;
76900;SDS011;65859;43.020;25.096;2023-07-31T02:12:43;21.17;;;19.08;;
76900;SDS011;65859;43.020;25.096;2023-07-31T02:15:09;21.17;;;19.17;;
76900;SDS011;65859;43.020;25.096;2023-07-31T02:17:36;20.92;;;18.60;;
76900;SDS011;65859;43.020;25.096;2023-07-31T02:20:02;23.15;;;20.92;;
76900;SDS011;65859;43.020;25.096;2023-07-31T02:22:29;21.15;;;19.23;;
76900;SDS011;65859;43.020;25.096;2023-07-31T02:24:55;22.30;;;20.10;;
76900;SDS011;65859;43.020;25.096;2023-07-31T02:27:23;23.55;;;21.05;;
76900;SDS011;65859;43.020;25.096;2023-07-31T02:29:52;22.10;;;20.10;;
76900;SDS011;65859;43.020;25.096;2023-07-31T02:32:19;22.77;;;20.77;;
76900;SDS011;65859;43.020;25.096;2023-07-31T02:34:45;20.95;;;19.08;;
76900;SDS011;65859;43.020;25.096;2023-07-31T02:37:11;21.60;;;19.63;;
76900;SDS011;65859;43.020;25.096;2023-07-31T02:39:38;18.80;;;16.85;;
76900;SDS011;65859;43.020;25.096;2023-07-31T02:42:04;17.42;;;15.82;;
76900;SDS011;65859;43.020;25.096;2023-07-31T02:44:30;18.67;;;16.90;;
76900;SDS011;65859;43.020;25.096;2023-07-31T02:46:57;18.65;;;17.05;;
76900;SDS011;65859;43.020;25.096;2023-07-31T02:49:23;19.40;;;17.65;;
76900;SDS011;65859;43.020;25.096;2023-07-31T02:51:49;18.52;;;16.65;;
76900;SDS011;65859;43.020;25.096;2023-07-31T02:54:15;19.02;;;17.30;;
76900;SDS011;65859;43.020;25.096;2023-07-31T02:56:42;19.45;;;17.63;;
76900;SDS011;65859;43.020;25.096;2023-07-31T02:59:09;19.02;;;17.33;;
76900;SDS011;65859;43.020;25.096;2023-07-31T03:01:36;18.02;;;16.48;;
76900;SDS011;65859;43.020;25.096;2023-07-31T03:04:03;18.80;;;17.10;;
76900;SDS011;65859;43.020;25.096;2023-07-31T03:06:29;17.40;;;15.68;;
76900;SDS011;65859;43.020;25.096;2023-07-31T03:08:55;19.38;;;17.67;;
76900;SDS011;65859;43.020;25.096;2023-07-31T03:11:22;20.08;;;18.27;;
76900;SDS011;65859;43.020;25.096;2023-07-31T03:13:48;19.25;;;17.38;;
76900;SDS011;65859;43.020;25.096;2023-07-31T03:16:14;19.52;;;17.45;;
76900;SDS011;65859;43.020;25.096;2023-07-31T03:18:40;21.65;;;19.55;;
76900;SDS011;65859;43.020;25.096;2023-07-31T03:21:07;22.75;;;20.83;;
76900;SDS011;65859;43.020;25.096;2023-07-31T03:23:33;21.83;;;19.83;;
76900;SDS011;65859;43.020;25.096;2023-07-31T03:26:00;23.40;;;21.30;;
76900;SDS011;65859;43.020;25.096;2023-07-31T03:28:28;23.33;;;21.13;;
76900;SDS011;65859;43.020;25.096;2023-07-31T03:30:56;22.05;;;20.00;;
76900;SDS011;65859;43.020;25.096;2023-07-31T03:33:23;24.13;;;19.85;;
76900;SDS011;65859;43.020;25.096;2023-07-31T03:35:49;23.48;;;21.38;;
76900;SDS011;65859;43.020;25.096;2023-07-31T03:38:15;24.67;;;22.35;;
76900;SDS011;65859;43.020;25.096;2023-07-31T03:40:42;24.45;;;21.90;;
76900;SDS011;65859;43.020;25.096;2023-07-31T03:43:08;23.77;;;21.58;;
76900;SDS011;65859;43.020;25.096;2023-07-31T03:45:34;24.15;;;21.92;;
76900;SDS011;65859;43.020;25.096;2023-07-31T03:48:01;23.98;;;21.75;;
76900;SDS011;65859;43.020;25.096;2023-07-31T03:50:28;23.77;;;21.58;;
76900;SDS011;65859;43.020;25.096;2023-07-31T03:52:54;22.92;;;20.83;;
76900;SDS011;65859;43.020;25.096;2023-07-31T03:55:21;24.38;;;22.08;;
76900;SDS011;65859;43.020;25.096;2023-07-31T03:57:47;25.75;;;23.23;;
76900;SDS011;65859;43.020;25.096;2023-07-31T04:00:13;23.27;;;21.02;;
76900;SDS011;65859;43.020;25.096;2023-07-31T04:02:41;25.92;;;23.20;;
76900;SDS011;65859;43.020;25.096;2023-07-31T04:05:07;25.73;;;23.30;;
76900;SDS011;65859;43.020;25.096;2023-07-31T04:07:34;25.85;;;23.45;;
76900;SDS011;65859;43.020;25.096;2023-07-31T04:10:00;23.48;;;21.38;;
76900;SDS011;65859;43.020;25.096;2023-07-31T04:12:27;24.73;;;22.30;;
76900;SDS011;65859;43.020;25.096;2023-07-31T04:14:53;23.65;;;21.60;;
76900;SDS011;65859;43.020;25.096;2023-07-31T04:17:19;24.52;;;22.13;;
76900;SDS011;65859;43.020;25.096;2023-07-31T04:19:46;24.20;;;21.80;;
76900;SDS011;65859;43.020;25.096;2023-07-31T04:22:12;24.95;;;22.63;;
76900;SDS011;65859;43.020;25.096;2023-07-31T04:24:38;22.33;;;20.25;;
76900;SDS011;65859;43.020;25.096;2023-07-31T04:27:05;23.80;;;21.60;;
76900;SDS011;65859;43.020;25.096;2023-07-31T04:29:31;22.85;;;20.70;;
76900;SDS011;65859;43.020;25.096;2023-07-31T04:31:57;23.08;;;20.92;;
76900;SDS011;65859;43.020;25.096;2023-07-31T04:34:24;23.92;;;21.67;;
76900;SDS011;65859;43.020;25.096;2023-07-31T04:36:51;23.20;;;21.10;;
76900;SDS011;65859;43.020;25.096;2023-07-31T04:39:17;21.95;;;19.95;;
76900;SDS011;65859;43.020;25.096;2023-07-31T04:41:43;20.85;;;18.73;;
76900;SDS011;65859;43.020;25.096;2023-07-31T04:44:09;19.70;;;17.80;;
76900;SDS011;65859;43.020;25.096;2023-07-31T04:46:36;21.48;;;19.00;;
76900;SDS011;65859;43.020;25.096;2023-07-31T04:49:02;20.80;;;18.70;;
76900;SDS011;65859;43.020;25.096;2023-07-31T04:51:29;22.70;;;20.60;;
76900;SDS011;65859;43.020;25.096;2023-07-31T04:53:56;22.67;;;20.65;;
76900;SDS011;65859;43.020;25.096;2023-07-31T04:56:22;23.50;;;21.40;;
76900;SDS011;65859;43.020;25.096;2023-07-31T04:58:48;18.63;;;17.02;;
76900;SDS011;65859;43.020;25.096;2023-07-31T05:01:14;22.10;;;19.95;;
76900;SDS011;65859;43.020;25.096;2023-07-31T05:03:41;20.05;;;18.17;;
76900;SDS011;65859;43.020;25.096;2023-07-31T05:06:09;17.48;;;15.98;;
76900;SDS011;65859;43.020;25.096;2023-07-31T05:08:36;20.25;;;18.25;;
76900;SDS011;65859;43.020;25.096;2023-07-31T05:11:02;20.02;;;18.23;;
76900;SDS011;65859;43.020;25.096;2023-07-31T05:13:29;19.23;;;17.23;;
76900;SDS011;65859;43.020;25.096;2023-07-31T05:15:55;18.75;;;16.95;;
76900;SDS011;65859;43.020;25.096;2023-07-31T05:18:21;18.88;;;17.08;;
76900;SDS011;65859;43.020;25.096;2023-07-31T05:20:47;17.60;;;16.00;;
76900;SDS011;65859;43.020;25.096;2023-07-31T05:23:14;18.83;;;16.83;;
76900;SDS011;65859;43.020;25.096;2023-07-31T05:25:40;20.13;;;17.45;;
76900;SDS011;65859;43.020;25.096;2023-07-31T05:28:06;19.02;;;17.13;;
76900;SDS011;65859;43.020;25.096;2023-07-31T05:30:33;18.45;;;16.75;;
76900;SDS011;65859;43.020;25.096;2023-07-31T05:32:59;18.63;;;16.73;;
76900;SDS011;65859;43.020;25.096;2023-07-31T05:35:25;20.52;;;18.10;;
76900;SDS011;65859;43.020;25.096;2023-07-31T05:37:53;20.25;;;18.38;;
76900;SDS011;65859;43.020;25.096;2023-07-31T05:40:19;20.95;;;18.85;;
76900;SDS011;65859;43.020;25.096;2023-07-31T05:42:46;19.50;;;17.55;;
76900;SDS011;65859;43.020;25.096;2023-07-31T05:45:12;14.68;;;13.23;;
76900;SDS011;65859;43.020;25.096;2023-07-31T05:47:38;13.68;;;12.38;;
76900;SDS011;65859;43.020;25.096;2023-07-31T05:50:05;15.20;;;12.88;;
76900;SDS011;65859;43.020;25.096;2023-07-31T05:52:31;18.90;;;13.52;;
76900;SDS011;65859;43.020;25.096;2023-07-31T05:54:58;15.13;;;12.75;;
76900;SDS011;65859;43.020;25.096;2023-07-31T05:57:24;16.73;;;12.18;;
76900;SDS011;65859;43.020;25.096;2023-07-31T05:59:50;14.98;;;11.60;;
76900;SDS011;65859;43.020;25.096;2023-07-31T06:02:18;12.07;;;9.90;;
76900;SDS011;65859;43.020;25.096;2023-07-31T06:04:44;11.07;;;9.52;;
76900;SDS011;65859;43.020;25.096;2023-07-31T06:07:11;15.45;;;11.27;;
76900;SDS011;65859;43.020;25.096;2023-07-31T06:09:38;11.88;;;9.75;;
76900;SDS011;65859;43.020;25.096;2023-07-31T06:12:05;12.63;;;9.65;;
76900;SDS011;65859;43.020;25.096;2023-07-31T06:14:31;10.20;;;9.20;;
76900;SDS011;65859;43.020;25.096;2023-07-31T06:16:58;9.10;;;8.20;;
76900;SDS011;65859;43.020;25.096;2023-07-31T06:19:24;9.13;;;7.35;;
76900;SDS011;65859;43.020;25.096;2023-07-31T06:21:50;9.50;;;7.22;;
76900;SDS011;65859;43.020;25.096;2023-07-31T06:24:16;8.68;;;7.82;;
76900;SDS011;65859;43.020;25.096;2023-07-31T06:26:45;9.32;;;7.50;;
76900;SDS011;65859;43.020;25.096;2023-07-31T06:29:11;9.15;;;8.18;;
76900;SDS011;65859;43.020;25.096;2023-07-31T06:31:38;9.27;;;7.85;;
76900;SDS011;65859;43.020;25.096;2023-07-31T06:34:05;9.07;;;7.88;;
76900;SDS011;65859;43.020;25.096;2023-07-31T06:36:31;9.13;;;7.97;;
76900;SDS011;65859;43.020;25.096;2023-07-31T06:38:58;9.00;;;8.02;;
76900;SDS011;65859;43.020;25.096;2023-07-31T06:41:25;10.38;;;8.18;;
76900;SDS011;65859;43.020;25.096;2023-07-31T06:43:52;11.88;;;8.05;;
76900;SDS011;65859;43.020;25.096;2023-07-31T06:46:18;8.00;;;7.20;;
76900;SDS011;65859;43.020;25.096;2023-07-31T06:48:44;8.93;;;8.13;;
76900;SDS011;65859;43.020;25.096;2023-07-31T06:51:10;8.38;;;7.18;;
76900;SDS011;65859;43.020;25.096;2023-07-31T06:53:37;9.38;;;7.43;;
76900;SDS011;65859;43.020;25.096;2023-07-31T06:56:03;8.10;;;6.45;;
76900;SDS011;65859;43.020;25.096;2023-07-31T06:58:30;7.68;;;6.43;;
76900;SDS011;65859;43.020;25.096;2023-07-31T07:00:56;7.35;;;6.60;;
76900;SDS011;65859;43.020;25.096;2023-07-31T07:03:22;7.72;;;6.60;;
76900;SDS011;65859;43.020;25.096;2023-07-31T07:05:48;10.35;;;7.13;;
76900;SDS011;65859;43.020;25.096;2023-07-31T07:08:15;7.15;;;6.45;;
76900;SDS011;65859;43.020;25.096;2023-07-31T07:10:42;7.97;;;6.57;;
76900;SDS011;65859;43.020;25.096;2023-07-31T07:13:10;6.85;;;6.15;;
76900;SDS011;65859;43.020;25.096;2023-07-31T07:15:37;6.97;;;5.95;;
76900;SDS011;65859;43.020;25.096;2023-07-31T07:18:04;7.18;;;5.93;;
76900;SDS011;65859;43.020;25.096;2023-07-31T07:20:30;6.50;;;5.88;;
76900;SDS011;65859;43.020;25.096;2023-07-31T07:22:57;5.80;;;5.30;;
76900;SDS011;65859;43.020;25.096;2023-07-31T07:25:23;7.90;;;5.68;;
76900;SDS011;65859;43.020;25.096;2023-07-31T07:27:49;6.75;;;5.90;;
76900;SDS011;65859;43.020;25.096;2023-07-31T07:30:16;5.82;;;5.32;;
76900;SDS011;65859;43.020;25.096;2023-07-31T07:32:42;6.28;;;5.68;;
76900;SDS011;65859;43.020;25.096;2023-07-31T07:35:09;6.10;;;5.20;;
76900;SDS011;65859;43.020;25.096;2023-07-31T07:37:35;6.85;;;5.97;;
76900;SDS011;65859;43.020;25.096;2023-07-31T07:40:01;6.70;;;5.07;;
76900;SDS011;65859;43.020;25.096;2023-07-31T07:42:28;6.03;;;5.53;;
76900;SDS011;65859;43.020;25.096;2023-07-31T07:44:56;6.55;;;5.22;;
76900;SDS011;65859;43.020;25.096;2023-07-31T07:47:22;5.18;;;4.55;;
76900;SDS011;65859;43.020;25.096;2023-07-31T07:49:48;6.13;;;5.13;;
76900;SDS011;65859;43.020;25.096;2023-07-31T07:52:15;8.18;;;4.70;;
76900;SDS011;65859;43.020;25.096;2023-07-31T07:54:41;5.95;;;4.60;;
76900;SDS011;65859;43.020;25.096;2023-07-31T07:57:07;5.72;;;5.07;;
76900;SDS011;65859;43.020;25.096;2023-07-31T07:59:35;8.40;;;5.30;;
76900;SDS011;65859;43.020;25.096;2023-07-31T08:02:01;5.80;;;4.95;;
76900;SDS011;65859;43.020;25.096;2023-07-31T08:04:28;6.70;;;4.32;;
76900;SDS011;65859;43.020;25.096;2023-07-31T08:06:54;5.28;;;4.40;;
76900;SDS011;65859;43.020;25.096;2023-07-31T08:09:20;6.50;;;4.82;;
76900;SDS011;65859;43.020;25.096;2023-07-31T08:11:46;7.40;;;4.60;;
76900;SDS011;65859;43.020;25.096;2023-07-31T08:14:13;6.63;;;4.43;;
76900;SDS011;65859;43.020;25.096;2023-07-31T08:16:40;7.80;;;4.15;;
76900;SDS011;65859;43.020;25.096;2023-07-31T08:19:07;6.28;;;4.50;;
76900;SDS011;65859;43.020;25.096;2023-07-31T08:21:33;4.70;;;4.30;;
76900;SDS011;65859;43.020;25.096;2023-07-31T08:23:59;4.60;;;4.20;;
76900;SDS011;65859;43.020;25.096;2023-07-31T08:26:26;5.53;;;4.05;;
76900;SDS011;65859;43.020;25.096;2023-07-31T08:28:52;5.80;;;4.00;;
76900;SDS011;65859;43.020;25.096;2023-07-31T08:31:18;4.40;;;3.58;;
76900;SDS011;65859;43.020;25.096;2023-07-31T08:33:45;6.63;;;3.97;;
76900;SDS011;65859;43.020;25.096;2023-07-31T08:36:11;4.10;;;3.45;;
76900;SDS011;65859;43.020;25.096;2023-07-31T08:38:37;5.70;;;3.08;;
76900;SDS011;65859;43.020;25.096;2023-07-31T08:41:03;4.68;;;3.15;;
76900;SDS011;65859;43.020;25.096;2023-07-31T08:43:30;5.50;;;3.55;;
76900;SDS011;65859;43.020;25.096;2023-07-31T08:45:57;3.85;;;3.17;;
76900;SDS011;65859;43.020;25.096;2023-07-31T08:48:25;3.20;;;2.90;;
76900;SDS011;65859;43.020;25.096;2023-07-31T08:50:53;3.63;;;3.33;;
76900;SDS011;65859;43.020;25.096;2023-07-31T08:53:19;3.78;;;3.13;;
76900;SDS011;65859;43.020;25.096;2023-07-31T08:55:46;3.42;;;3.13;;
76900;SDS011;65859;43.020;25.096;2023-07-31T08:58:13;6.00;;;3.35;;
76900;SDS011;65859;43.020;25.096;2023-07-31T09:00:40;4.18;;;3.10;;
76900;SDS011;65859;43.020;25.096;2023-07-31T09:03:09;3.63;;;3.33;;
76900;SDS011;65859;43.020;25.096;2023-07-31T09:05:41;3.53;;;3.05;;
76900;SDS011;65859;43.020;25.096;2023-07-31T09:08:10;10.30;;;4.45;;
76900;SDS011;65859;43.020;25.096;2023-07-31T09:10:43;4.32;;;3.17;;
76900;SDS011;65859;43.020;25.096;2023-07-31T09:13:14;4.45;;;3.25;;
76900;SDS011;65859;43.020;25.096;2023-07-31T09:15:42;6.72;;;3.50;;
76900;SDS011;65859;43.020;25.096;2023-07-31T09:18:09;6.95;;;3.15;;
76900;SDS011;65859;43.020;25.096;2023-07-31T09:20:38;5.43;;;3.40;;
76900;SDS011;65859;43.020;25.096;2023-07-31T09:23:05;6.20;;;3.75;;
76900;SDS011;65859;43.020;25.096;2023-07-31T09:25:36;3.45;;;3.15;;
76900;SDS011;65859;43.020;25.096;2023-07-31T09:28:04;5.22;;;3.40;;
76900;SDS011;65859;43.020;25.096;2023-07-31T09:30:32;5.63;;;3.78;;
76900;SDS011;65859;43.020;25.096;2023-07-31T09:33:14;5.10;;;2.97;;
76900;SDS011;65859;43.020;25.096;2023-07-31T09:35:41;3.28;;;2.85;;
76900;SDS011;65859;43.020;25.096;2023-07-31T09:38:12;5.50;;;3.00;;
76900;SDS011;65859;43.020;25.096;2023-07-31T09:40:42;3.63;;;3.00;;
76900;SDS011;65859;43.020;25.096;2023-07-31T09:43:11;4.95;;;3.22;;
76900;SDS011;65859;43.020;25.096;2023-07-31T09:45:45;3.65;;;3.35;;
76900;SDS011;65859;43.020;25.096;2023-07-31T09:48:15;4.43;;;3.10;;
76900;SDS011;65859;43.020;25.096;2023-07-31T09:53:11;4.28;;;3.88;;
76900;SDS011;65859;43.020;25.096;2023-07-31T09:55:39;5.47;;;3.70;;
76900;SDS011;65859;43.020;25.096;2023-07-31T09:58:07;8.30;;;4.35;;
76900;SDS011;65859;43.020;25.096;2023-07-31T10:00:35;7.75;;;3.90;;
76900;SDS011;65859;43.020;25.096;2023-07-31T10:03:04;3.80;;;3.50;;
76900;SDS011;65859;43.020;25.096;2023-07-31T10:05:37;6.10;;;3.60;;
76900;SDS011;65859;43.020;25.096;2023-07-31T10:08:09;3.63;;;3.33;;
76900;SDS011;65859;43.020;25.096;2023-07-31T10:10:40;4.75;;;3.00;;
76900;SDS011;65859;43.020;25.096;2023-07-31T10:13:11;4.17;;;3.77;;
76900;SDS011;65859;43.020;25.096;2023-07-31T10:15:38;6.90;;;4.18;;
76900;SDS011;65859;43.020;25.096;2023-07-31T10:18:06;4.65;;;4.20;;
76900;SDS011;65859;43.020;25.096;2023-07-31T10:20:33;8.40;;;3.85;;
76900;SDS011;65859;43.020;25.096;2023-07-31T10:23:01;5.35;;;4.20;;
76900;SDS011;65859;43.020;25.096;2023-07-31T10:25:28;4.18;;;3.75;;
76900;SDS011;65859;43.020;25.096;2023-07-31T10:27:55;5.82;;;3.75;;
76900;SDS011;65859;43.020;25.096;2023-07-31T10:30:25;6.70;;;3.58;;
76900;SDS011;65859;43.020;25.096;2023-07-31T10:32:55;6.07;;;3.42;;
76900;SDS011;65859;43.020;25.096;2023-07-31T10:35:22;6.05;;;3.80;;
76900;SDS011;65859;43.020;25.096;2023-07-31T10:37:49;4.25;;;3.30;;
76900;SDS011;65859;43.020;25.096;2023-07-31T10:40:19;3.83;;;3.42;;
76900;SDS011;65859;43.020;25.096;2023-07-31T10:42:53;3.65;;;2.90;;
76900;SDS011;65859;43.020;25.096;2023-07-31T10:45:33;6.72;;;3.13;;
76900;SDS011;65859;43.020;25.096;2023-07-31T10:48:13;4.22;;;3.40;;
76900;SDS011;65859;43.020;25.096;2023-07-31T10:50:54;3.95;;;3.65;;
76900;SDS011;65859;43.020;25.096;2023-07-31T10:53:30;4.50;;;3.60;;
76900;SDS011;65859;43.020;25.096;2023-07-31T10:56:04;3.75;;;3.45;;
76900;SDS011;65859;43.020;25.096;2023-07-31T10:58:32;4.60;;;3.70;;
76900;SDS011;65859;43.020;25.096;2023-07-31T11:01:00;3.90;;;3.50;;
76900;SDS011;65859;43.020;25.096;2023-07-31T11:06:11;5.43;;;3.45;;
76900;SDS011;65859;43.020;25.096;2023-07-31T11:08:42;10.80;;;4.60;;
76900;SDS011;65859;43.020;25.096;2023-07-31T11:11:11;3.47;;;3.17;;
76900;SDS011;65859;43.020;25.096;2023-07-31T11:13:42;6.45;;;4.15;;
76900;SDS011;65859;43.020;25.096;2023-07-31T11:16:17;5.57;;;3.53;;
76900;SDS011;65859;43.020;25.096;2023-07-31T11:18:44;9.43;;;4.30;;
76900;SDS011;65859;43.020;25.096;2023-07-31T11:21:16;4.53;;;4.13;;
76900;SDS011;65859;43.020;25.096;2023-07-31T11:26:18;6.95;;;4.55;;
76900;SDS011;65859;43.020;25.096;2023-07-31T11:28:49;7.53;;;4.88;;
76900;SDS011;65859;43.020;25.096;2023-07-31T11:31:16;4.88;;;3.70;;
76900;SDS011;65859;43.020;25.096;2023-07-31T11:33:43;5.63;;;4.30;;
76900;SDS011;65859;43.020;25.096;2023-07-31T11:36:18;4.97;;;4.10;;
76900;SDS011;65859;43.020;25.096;2023-07-31T11:38:46;4.35;;;3.95;;
76900;SDS011;65859;43.020;25.096;2023-07-31T11:41:15;5.50;;;3.88;;
76900;SDS011;65859;43.020;25.096;2023-07-31T11:43:42;13.23;;;4.75;;
76900;SDS011;65859;43.020;25.096;2023-07-31T11:46:09;4.50;;;4.10;;
76900;SDS011;65859;43.020;25.096;2023-07-31T11:48:36;5.13;;;4.03;;
76900;SDS011;65859;43.020;25.096;2023-07-31T11:51:03;5.05;;;4.15;;
76900;SDS011;65859;43.020;25.096;2023-07-31T11:53:31;7.50;;;4.30;;
76900;SDS011;65859;43.020;25.096;2023-07-31T11:56:12;5.05;;;4.28;;
76900;SDS011;65859;43.020;25.096;2023-07-31T11:58:41;4.47;;;3.85;;
76900;SDS011;65859;43.020;25.096;2023-07-31T12:01:11;5.78;;;4.03;;
76900;SDS011;65859;43.020;25.096;2023-07-31T12:03:39;5.03;;;4.50;;
76900;SDS011;65859;43.020;25.096;2023-07-31T12:06:07;5.68;;;5.10;;
76900;SDS011;65859;43.020;25.096;2023-07-31T12:08:33;5.25;;;4.75;;
76900;SDS011;65859;43.020;25.096;2023-07-31T12:11:04;6.95;;;4.53;;
76900;SDS011;65859;43.020;25.096;2023-07-31T12:13:34;5.55;;;4.40;;
76900;SDS011;65859;43.020;25.096;2023-07-31T12:16:02;4.45;;;4.05;;
76900;SDS011;65859;43.020;25.096;2023-07-31T12:18:29;5.15;;;4.72;;
76900;SDS011;65859;43.020;25.096;2023-07-31T12:21:01;5.43;;;4.93;;
76900;SDS011;65859;43.020;25.096;2023-07-31T12:23:32;6.10;;;4.60;;
76900;SDS011;65859;43.020;25.096;2023-07-31T12:26:01;5.00;;;4.45;;
76900;SDS011;65859;43.020;25.096;2023-07-31T12:28:35;5.10;;;4.60;;
76900;SDS011;65859;43.020;25.096;2023-07-31T12:31:05;4.82;;;4.32;;
76900;SDS011;65859;43.020;25.096;2023-07-31T12:33:35;5.30;;;4.80;;
76900;SDS011;65859;43.020;25.096;2023-07-31T12:36:03;5.63;;;4.43;;
76900;SDS011;65859;43.020;25.096;2023-07-31T12:38:33;5.95;;;4.22;;
76900;SDS011;65859;43.020;25.096;2023-07-31T12:40:59;4.25;;;3.92;;
76900;SDS011;65859;43.020;25.096;2023-07-31T12:43:25;5.75;;;4.10;;
76900;SDS011;65859;43.020;25.096;2023-07-31T12:45:53;5.97;;;4.10;;
76900;SDS011;65859;43.020;25.096;2023-07-31T12:48:20;4.95;;;4.55;;
76900;SDS011;65859;43.020;25.096;2023-07-31T12:50:46;5.07;;;4.10;;
76900;SDS011;65859;43.020;25.096;2023-07-31T12:53:13;7.70;;;4.95;;
76900;SDS011;65859;43.020;25.096;2023-07-31T12:55:40;9.05;;;4.50;;
76900;SDS011;65859;43.020;25.096;2023-07-31T12:58:06;8.40;;;4.32;;
76900;SDS011;65859;43.020;25.096;2023-07-31T13:00:34;5.35;;;4.32;;
76900;SDS011;65859;43.020;25.096;2023-07-31T13:03:00;4.88;;;4.03;;
76900;SDS011;65859;43.020;25.096;2023-07-31T13:05:28;6.68;;;4.18;;
76900;SDS011;65859;43.020;25.096;2023-07-31T13:07:54;5.30;;;4.78;;
76900;SDS011;65859;43.020;25.096;2023-07-31T13:10:22;6.80;;;4.47;;
76900;SDS011;65859;43.020;25.096;2023-07-31T13:12:48;7.55;;;4.60;;
76900;SDS011;65859;43.020;25.096;2023-07-31T13:15:15;7.68;;;4.60;;
76900;SDS011;65859;43.020;25.096;2023-07-31T13:17:41;5.47;;;4.60;;
76900;SDS011;65859;43.020;25.096;2023-07-31T13:20:08;5.20;;;4.70;;
76900;SDS011;65859;43.020;25.096;2023-07-31T13:22:34;5.10;;;4.60;;
76900;SDS011;65859;43.020;25.096;2023-07-31T13:25:00;5.53;;;5.03;;
76900;SDS011;65859;43.020;25.096;2023-07-31T13:27:27;5.45;;;4.90;;
76900;SDS011;65859;43.020;25.096;2023-07-31T13:29:53;4.85;;;4.30;;
76900;SDS011;65859;43.020;25.096;2023-07-31T13:32:21;9.18;;;4.55;;
76900;SDS011;65859;43.020;25.096;2023-07-31T13:34:47;5.47;;;4.50;;
76900;SDS011;65859;43.020;25.096;2023-07-31T13:37:14;5.40;;;4.75;;
76900;SDS011;65859;43.020;25.096;2023-07-31T13:39:41;10.07;;;5.13;;
76900;SDS011;65859;43.020;25.096;2023-07-31T13:42:07;6.55;;;4.90;;
76900;SDS011;65859;43.020;25.096;2023-07-31T13:44:40;4.72;;;4.32;;
76900;SDS011;65859;43.020;25.096;2023-07-31T13:47:07;7.50;;;4.63;;
76900;SDS011;65859;43.020;25.096;2023-07-31T13:49:34;4.75;;;4.30;;
76900;SDS011;65859;43.020;25.096;2023-07-31T13:52:01;10.95;;;4.38;;
76900;SDS011;65859;43.020;25.096;2023-07-31T13:54:27;5.30;;;4.50;;
76900;SDS011;65859;43.020;25.096;2023-07-31T13:56:54;5.78;;;4.40;;
76900;SDS011;65859;43.020;25.096;2023-07-31T13:59:20;4.70;;;3.92;;
76900;SDS011;65859;43.020;25.096;2023-07-31T14:01:46;3.95;;;3.50;;
76900;SDS011;65859;43.020;25.096;2023-07-31T14:04:14;4.97;;;4.20;;
76900;SDS011;65859;43.020;25.096;2023-07-31T14:06:40;6.03;;;4.35;;
76900;SDS011;65859;43.020;25.096;2023-07-31T14:09:06;4.35;;;4.03;;
76900;SDS011;65859;43.020;25.096;2023-07-31T14:11:33;7.10;;;4.32;;
76900;SDS011;65859;43.020;25.096;2023-07-31T14:13:59;6.25;;;4.13;;
76900;SDS011;65859;43.020;25.096;2023-07-31T14:16:29;4.55;;;3.97;;
76900;SDS011;65859;43.020;25.096;2023-07-31T14:18:56;5.57;;;4.10;;
76900;SDS011;65859;43.020;25.096;2023-07-31T14:21:24;4.50;;;4.07;;
76900;SDS011;65859;43.020;25.096;2023-07-31T14:23:51;5.03;;;4.40;;
76900;SDS011;65859;43.020;25.096;2023-07-31T14:26:18;5.68;;;5.18;;
76900;SDS011;65859;43.020;25.096;2023-07-31T14:28:44;4.95;;;4.00;;
76900;SDS011;65859;43.020;25.096;2023-07-31T14:31:10;5.07;;;4.30;;
76900;SDS011;65859;43.020;25.096;2023-07-31T14:33:37;4.50;;;3.88;;
76900;SDS011;65859;43.020;25.096;2023-07-31T14:36:05;4.28;;;3.88;;
76900;SDS011;65859;43.020;25.096;2023-07-31T14:38:31;5.05;;;3.58;;